Chernovtsk, Chernivtsi International Airport (UKLN)

NameChernivtsi International Airport
CityChernovtsk
CountryUkraine
ICAOUKLN
IATACWC
Altitude243 m
CoordinatesGoogle Map
Live Air TrafficLiveATC.net
METARUKLN 270500Z 30006MPS 250V340 9999 -SHRA BKN012CB 04/01 Q0999 R33/290260 TEMPO 32008G15MPS
2020-02-27 05:00:00 Wind: Northwest (320°) 8 m/s - Visibility: 3200 m - Weather: Light Showers Rain - Temperature: 4 °C - Dew point: 1 °C - Humidity: 81% - Pressure: 0999 hPa

Sorry, no flights used the airport in this database.